Share

Clinton, MO

10:57 AM CDT on April 23, 2014 (GMT -0500)
RAWS CLINTON MO US (MCITM7) Elev 759 ft | 38.35 °N, 93.77 °W | Change Station

Current weather conditions updated 44 minutes ago

Partly Cloudy
Partly Cloudy
60 °F
Feels Like 60 °F
N
7
Wind Variable Wind from ESE
Gusts 14.0 mph
Sunrise 6:28 AM
Sunset 7:59 PM
Moon Waning Crescent

Today is forecast to be Much Warmer than yesterday. A few showers developing late tonight.

Pressure 30.01 in
Visibility 9.0 miles
Clouds Few 11000 ft
Dew Point 37 °F
Humidity 42%
Rainfall 0.00 in
Snow Depth Not available.
UV 7 out of 16
Pollen 10.80 out of 12
Air Quality Not available.
Flu Activity Sporadic
METAR KGLY 231555Z AUTO 13011KT 9SM FEW110 16/03 A3001 RMK AO2

More Conditions Fewer Conditions

Pressure 30.01 in
Visibility 9.0 miles
Clouds Few 11000 ft
Dew Point 37 °F
Humidity 42%
Rainfall 0.00 in
Snow Depth Not available.
UV 7 out of 16
Pollen 10.80 out of 12
Air Quality Not available.
Flu Activity Sporadic
METAR KGLY 231555Z AUTO 13011KT 9SM FEW110 16/03 A3001 RMK AO2

More Conditions Fewer Conditions

10-Day Weather Forecast

Almanac

Astronomy

Apr. 23, 2014 Rise Set
Actual Time 6:28 AM CDT 7:59 PM CDT
Civil Twilight 6:00 AM CDT 8:27 PM CDT
Nautical Twilight 5:26 AM CDT 9:00 PM CDT
Astronomical Twilight 4:51 AM CDT 9:36 PM CDT
Moon 2:55 AM CDT 2:13 PM CDT
Length of Visible Light 14h 26m
Length of Day
13h 31m
Tomorrow will be 2m 16s longer.
Waning Crescent, 35% of the Moon is Illuminated
Today
Waning Crescent
Apr 29
New
May 6
First Quarter
May 14
Full
May 21
Last Quarter

Today's Extremes

State Highs State Lows

Community

  • spring flowers
    spring flowers
  • Earth Day Spectrum Ove' Blue
    Earth Day Spectrum Ove' Blue
  • BARN B&W
    BARN B&W
  • April Sunset
    April Sunset
  • Waiting..
    Waiting..

WunderPhotos

Upload Photos

1,704,316 photos uploaded!

Nearby

Snow Depth

Station Depth Elevation
No new snow has been reported.

Coastal Water Temperatures

Place Temperature
No Stations Reporting

Earthquake Activity

City Distance Mag. Time & Date
No recent earthquake activity has been reported nearby.
Minimum magnitude displayed is 2.5.

Nearby Weather Stations

Station Location Temp. Dew Point Humidity Wind Precip. Elev Updated Type
RAWS CLINTON MO, Clinton, MO 60 °F 37 °F 42% ESE  at  7 mph 0.00 in / hr 759 ft 10:13 AM CDT MADIS
Windsor NW, Windsor, MO 56.8 °F 40 °F 53% SE  at  0.0 mph 0.00 in / hr 886 ft 10:56 AM CDT Rapid Fire
MesoWest HOLDEN , Holden, MO 54 °F - - North  at  - 0.00 in / hr 883 ft 10:10 AM CDT MADIS
Holden Missouri, Holden, MO 58.1 °F -0 °F 9% ESE  at  2.7 mph 0.00 in / hr 900 ft 10:57 AM CDT Rapid Fire

Show More Stations Show Fewer Stations

What do you think?

We're not finished. Please let us know what you like, what you don't like, and what you are still missing.